Time;durP1;ratioP1;P1;durP2;ratioP2;P2;SDS_P1;SDS_P2;PMS_P1;PMS_P2;Temp;Humidity;BMP_temperature;BMP_pressure;BME280_temperature;BME280_humidity;BME280_pressure;Samples;Min_cycle;Max_cycle;Signal;HPM_P1;HPM_P2
2020/12/08 00:00:25;;;;;;;;;;;;;;;18.29;60.58;100955.84;5012890;28;1885;-38
2020/12/08 00:02:50;;;;;;;;;;;;;;;18.22;60.60;100944.81;5013333;28;1578;-38
2020/12/08 00:05:16;;;;;;;;;;;;;;;18.24;60.31;100953.56;5013112;28;1519;-38
2020/12/08 00:07:41;;;;;;;;;;;;;;;18.25;60.24;100960.59;5012938;28;1418;-38
2020/12/08 00:10:07;;;;;;;;;;;;;;;18.24;60.19;100958.91;5013298;28;1483;-38
2020/12/08 00:12:32;;;;;;;;;;;;;;;18.25;60.19;100968.63;5013094;28;1529;-38
2020/12/08 00:14:57;;;;;;;;;;;;;;;18.25;60.55;100954.41;5013079;28;1578;-38
2020/12/08 00:17:23;;;;;;;;;;;;;;;18.20;59.75;100961.94;5015929;28;1517;-39
2020/12/08 00:19:48;;;;;;;;;;;;;;;18.23;60.14;100967.91;5016261;28;1588;-38
2020/12/08 00:22:13;;;;;;;;;;;;;;;18.19;60.15;100965.63;5016327;28;1882;-38
2020/12/08 00:24:38;;;;;;;;;;;;;;;18.21;60.07;100961.81;5016480;28;1612;-37
2020/12/08 00:27:04;;;;;;;;;;;;;;;18.18;59.73;100970.09;5016360;28;1605;-38
2020/12/08 00:29:29;;;;;;;;;;;;;;;18.17;59.46;100963.06;5016481;28;1543;-38
2020/12/08 00:31:54;;;;;;;;;;;;;;;18.17;59.35;100967.56;5016123;28;1548;-38
2020/12/08 00:34:20;;;;;;;;;;;;;;;18.19;59.54;100963.78;5016436;28;1380;-38
2020/12/08 00:36:45;;;;;;;;;;;;;;;18.15;59.35;100956.97;5016318;28;1731;-38
2020/12/08 00:39:10;;;;;;;;;;;;;;;18.15;60.07;100956.13;5015967;28;1597;-38
2020/12/08 00:41:35;;;;;;;;;;;;;;;18.15;59.09;100956.97;5015913;28;1906;-38
2020/12/08 00:44:00;;;;;;;;;;;;;;;18.13;59.48;100969.63;5016251;28;1519;-38
2020/12/08 00:46:26;;;;;;;;;;;;;;;18.13;59.67;100958.09;5016165;28;1573;-38
2020/12/08 00:48:51;;;;;;;;;;;;;;;18.14;59.15;100957.94;5015936;28;1615;-38
2020/12/08 00:51:17;;;;;;;;;;;;;;;18.09;59.07;100946.78;5015564;28;1714;-38
2020/12/08 00:53:42;;;;;;;;;;;;;;;18.07;59.62;100951.41;5016167;28;1534;-38
2020/12/08 00:56:09;;;;;;;;;;;;;;;18.10;59.51;100945.78;5015821;28;1505;-38
2020/12/08 00:58:34;;;;;;;;;;;;;;;18.06;59.27;100929.16;5015775;28;1538;-38
2020/12/08 01:00:59;;;;;;;;;;;;;;;18.05;59.08;100942.66;5015645;28;1898;-38
2020/12/08 01:03:25;;;;;;;;;;;;;;;18.08;59.17;100937.03;5015797;28;1674;-38
2020/12/08 01:05:50;;;;;;;;;;;;;;;18.05;58.88;100934.63;5015559;28;1639;-38
2020/12/08 01:08:15;;;;;;;;;;;;;;;18.04;59.27;100930.22;5015615;28;1418;-38
2020/12/08 01:10:40;;;;;;;;;;;;;;;18.04;59.52;100935.59;5015805;28;1619;-38
2020/12/08 01:13:06;;;;;;;;;;;;;;;18.05;59.04;100939.97;5015466;28;1604;-38
2020/12/08 01:15:31;;;;;;;;;;;;;;;17.97;59.24;100935.25;5015224;28;1537;-38
2020/12/08 01:17:56;;;;;;;;;;;;;;;17.99;59.48;100935.13;5015544;28;1526;-38
2020/12/08 01:20:22;;;;;;;;;;;;;;;18.00;59.29;100932.31;5015451;28;1906;-38
2020/12/08 01:22:47;;;;;;;;;;;;;;;18.01;58.64;100947.41;5015281;28;1475;-38
2020/12/08 01:25:12;;;;;;;;;;;;;;;18.01;59.00;100954.59;5015101;28;1572;-38
2020/12/08 01:27:37;;;;;;;;;;;;;;;18.00;58.79;100951.03;5014739;28;1663;-38
2020/12/08 01:30:04;;;;;;;;;;;;;;;17.99;59.31;100952.03;5015330;28;1535;-38
2020/12/08 01:32:29;;;;;;;;;;;;;;;17.96;59.19;100972.81;5015388;28;1575;-38
2020/12/08 01:34:54;;;;;;;;;;;;;;;17.98;59.18;100960.16;5015051;28;1546;-38
2020/12/08 01:37:19;;;;;;;;;;;;;;;17.98;58.85;100976.22;5015279;28;1653;-38
2020/12/08 01:39:45;;;;;;;;;;;;;;;17.96;58.86;100968.31;5014853;28;1498;-38
2020/12/08 01:42:10;;;;;;;;;;;;;;;18.00;58.99;100977.78;5015216;28;1973;-38
2020/12/08 01:44:35;;;;;;;;;;;;;;;17.93;58.35;100965.91;5015060;28;1396;-38
2020/12/08 01:47:01;;;;;;;;;;;;;;;17.97;59.06;100988.75;5015063;28;1556;-38
2020/12/08 01:49:26;;;;;;;;;;;;;;;17.99;58.84;100978.78;5014679;28;1629;-38
2020/12/08 01:51:52;;;;;;;;;;;;;;;17.97;58.32;100971.88;5015000;28;1569;-38
2020/12/08 01:54:17;;;;;;;;;;;;;;;17.95;58.11;100974.66;5014910;28;1598;-38
2020/12/08 01:56:42;;;;;;;;;;;;;;;17.94;57.91;100974.78;5014525;28;1583;-37
2020/12/08 01:59:08;;;;;;;;;;;;;;;17.92;58.49;100984.75;5014678;28;1572;-38
2020/12/08 02:01:33;;;;;;;;;;;;;;;17.92;58.82;100974.03;5014335;28;1910;-38
2020/12/08 02:03:59;;;;;;;;;;;;;;;17.89;58.68;100976.00;5014583;28;1627;-38
2020/12/08 02:06:25;;;;;;;;;;;;;;;17.92;58.48;100980.22;5014386;28;1406;-38
2020/12/08 02:08:50;;;;;;;;;;;;;;;17.91;58.48;100988.41;5014379;28;1561;-38
2020/12/08 02:11:15;;;;;;;;;;;;;;;17.85;58.91;100984.41;5014817;28;1704;-37
2020/12/08 02:13:40;;;;;;;;;;;;;;;17.89;58.81;100993.88;5014556;28;1566;-38
2020/12/08 02:16:06;;;;;;;;;;;;;;;17.87;58.65;100993.16;5014453;28;1581;-38
2020/12/08 02:18:31;;;;;;;;;;;;;;;17.83;57.97;100979.16;5014296;28;1839;-38
2020/12/08 02:20:57;;;;;;;;;;;;;;;17.86;57.96;100986.09;5014320;28;1980;-38
2020/12/08 02:23:22;;;;;;;;;;;;;;;17.86;58.78;100981.56;5013875;28;1338;-38
2020/12/08 02:26:06;;;;;;;;;;;;;;;17.84;58.45;100977.31;5014487;28;1369;-38
2020/12/08 02:28:32;;;;;;;;;;;;;;;17.83;57.97;100979.16;5014085;28;1506;-38
2020/12/08 02:30:57;;;;;;;;;;;;;;;17.83;57.78;100992.53;5014093;28;1442;-38
2020/12/08 02:33:27;;;;;;;;;;;;;;;17.82;58.94;100972.06;5013770;28;1575;-38
2020/12/08 02:35:55;;;;;;;;;;;;;;;17.80;58.47;100987.38;4998827;28;1537;-38
2020/12/08 02:38:21;;;;;;;;;;;;;;;17.80;58.24;100970.50;5013484;28;1607;-38
2020/12/08 02:40:46;;;;;;;;;;;;;;;17.84;58.87;100975.50;5011764;28;1910;-38
2020/12/08 02:43:12;;;;;;;;;;;;;;;17.84;58.85;100978.16;5013623;28;1637;-38
2020/12/08 02:45:37;;;;;;;;;;;;;;;17.84;58.77;100982.69;5013168;28;1356;-38
2020/12/08 02:48:03;;;;;;;;;;;;;;;17.84;58.47;100980.84;5014269;28;1281;-38
2020/12/08 02:50:28;;;;;;;;;;;;;;;17.81;57.88;100965.03;5013469;28;1351;-38
2020/12/08 02:52:53;;;;;;;;;;;;;;;17.81;58.57;100973.06;5013492;28;1255;-38
2020/12/08 02:55:18;;;;;;;;;;;;;;;17.85;58.18;100976.38;5013296;28;1505;-38
2020/12/08 02:57:44;;;;;;;;;;;;;;;17.82;58.16;100982.75;5014046;28;1454;-38
2020/12/08 03:00:09;;;;;;;;;;;;;;;17.86;59.20;100978.91;5013065;28;1894;-38
2020/12/08 03:02:34;;;;;;;;;;;;;;;17.88;58.70;100984.97;5012236;28;1617;-38
2020/12/08 03:04:59;;;;;;;;;;;;;;;17.84;58.89;100994.22;5013574;28;1373;-38
2020/12/08 03:07:25;;;;;;;;;;;;;;;17.80;58.55;100992.72;5013726;28;971;-38
2020/12/08 03:09:50;;;;;;;;;;;;;;;17.79;58.57;100985.69;5013669;28;817;-38
2020/12/08 03:12:15;;;;;;;;;;;;;;;17.81;58.18;100981.06;5013167;28;1396;-39
2020/12/08 03:14:43;;;;;;;;;;;;;;;17.78;58.98;100993.84;5011390;28;1722;-38
2020/12/08 03:17:09;;;;;;;;;;;;;;;17.75;58.20;100972.69;5012399;28;1257;-38
2020/12/08 03:19:34;;;;;;;;;;;;;;;17.76;58.32;100980.56;5012030;28;1293;-38
2020/12/08 03:21:59;;;;;;;;;;;;;;;17.72;58.82;100979.13;5012736;28;1969;-38
2020/12/08 03:24:24;;;;;;;;;;;;;;;17.74;58.09;100987.88;5012510;28;1224;-38
2020/12/08 03:26:50;;;;;;;;;;;;;;;17.70;58.84;100976.56;5013580;28;1762;-38
2020/12/08 03:29:15;;;;;;;;;;;;;;;17.75;59.22;100980.72;5013213;28;1699;-38
2020/12/08 03:31:40;;;;;;;;;;;;;;;17.70;58.74;100979.25;5013382;28;1760;-38
2020/12/08 03:34:05;;;;;;;;;;;;;;;17.75;58.65;100980.72;5013603;28;1779;-38
2020/12/08 03:36:31;;;;;;;;;;;;;;;17.70;57.81;100991.78;5013490;28;1866;-38
2020/12/08 03:38:58;;;;;;;;;;;;;;;17.71;58.55;100988.13;5013109;28;1857;-38
2020/12/08 03:41:23;;;;;;;;;;;;;;;17.70;57.94;100981.91;5013472;28;1918;-38
2020/12/08 03:43:49;;;;;;;;;;;;;;;17.69;58.24;100987.41;5013304;28;1799;-38
2020/12/08 03:46:18;;;;;;;;;;;;;;;17.66;57.99;100985.81;5012999;28;1795;-38
2020/12/08 03:48:44;;;;;;;;;;;;;;;17.69;58.33;100990.94;5013542;28;1694;-38
2020/12/08 03:51:13;;;;;;;;;;;;;;;17.69;58.56;100998.09;5016320;28;1792;-37
2020/12/08 03:53:38;;;;;;;;;;;;;;;17.71;58.60;100998.84;5016705;28;1665;-37
2020/12/08 03:56:07;;;;;;;;;;;;;;;17.68;58.28;101001.72;5017007;28;1364;-38
2020/12/08 03:58:32;;;;;;;;;;;;;;;17.68;58.99;101004.41;5017030;28;1769;-38
2020/12/08 04:00:58;;;;;;;;;;;;;;;17.68;59.97;101002.56;5016583;28;1893;-38
2020/12/08 04:03:23;;;;;;;;;;;;;;;17.68;60.34;100994.56;5016667;28;1920;-38
2020/12/08 04:05:48;;;;;;;;;;;;;;;17.74;60.02;100993.22;5016510;28;1684;-38
2020/12/08 04:08:13;;;;;;;;;;;;;;;17.73;60.52;100996.03;5016598;28;1885;-38
2020/12/08 04:10:38;;;;;;;;;;;;;;;17.54;61.92;100994.81;5016480;28;1527;-37
2020/12/08 04:13:06;;;;;;;;;;;;;;;17.40;62.02;101009.25;5016543;28;1613;-38
2020/12/08 04:15:31;;;;;;;;;;;;;;;17.31;62.90;101001.97;5016645;28;1618;-37
2020/12/08 04:17:57;;;;;;;;;;;;;;;17.26;63.10;101002.28;5016592;28;1617;-38
2020/12/08 04:20:22;;;;;;;;;;;;;;;17.21;62.77;100993.78;5016455;28;1898;-38
2020/12/08 04:22:47;;;;;;;;;;;;;;;17.32;62.88;101000.13;4983026;28;11031;-38
2020/12/08 04:25:12;;;;;;;;;;;;;;;17.22;62.88;100991.97;4978788;28;10794;-38
2020/12/08 04:27:37;;;;;;;;;;;;;;;17.16;62.98;100984.44;5020421;28;1435;-38
2020/12/08 04:30:03;;;;;;;;;;;;;;;17.17;63.58;100996.81;4937727;28;10032;-38
2020/12/08 04:32:28;;;;;;;;;;;;;;;17.15;64.31;101009.44;4950043;28;11041;-38
2020/12/08 04:34:53;;;;;;;;;;;;;;;17.11;63.93;100995.47;5001220;28;1793;-38
2020/12/08 04:37:18;;;;;;;;;;;;;;;17.12;63.52;100996.31;5016108;28;1700;-37
2020/12/08 04:39:44;;;;;;;;;;;;;;;17.08;64.63;100985.84;5015897;28;1606;-37
2020/12/08 04:42:11;;;;;;;;;;;;;;;17.08;64.02;100985.84;5016115;28;1981;-38
2020/12/08 04:44:37;;;;;;;;;;;;;;;17.06;63.66;100987.78;5016093;28;1705;-37
2020/12/08 04:47:04;;;;;;;;;;;;;;;17.06;63.89;100985.13;5015932;28;1787;-37
2020/12/08 04:49:30;;;;;;;;;;;;;;;17.02;63.90;100986.31;5016140;28;1839;-37
2020/12/08 04:51:55;;;;;;;;;;;;;;;17.03;63.74;100980.03;5016121;28;1783;-37
2020/12/08 04:54:20;;;;;;;;;;;;;;;17.01;64.77;100983.75;5015616;28;1673;-38
2020/12/08 04:56:49;;;;;;;;;;;;;;;16.99;64.91;100991.91;5015561;28;1610;-37
2020/12/08 04:59:23;;;;;;;;;;;;;;;17.01;64.01;100987.31;5015739;28;1814;-37
2020/12/08 05:01:48;;;;;;;;;;;;;;;16.99;64.75;100989.25;5014438;28;1898;-37
2020/12/08 05:04:21;;;;;;;;;;;;;;;17.00;64.99;100988.25;5015512;28;1803;-37
2020/12/08 05:06:47;;;;;;;;;;;;;;;17.02;64.43;100998.84;5015842;28;1729;-38
2020/12/08 05:09:12;;;;;;;;;;;;;;;16.94;64.16;100994.06;5015458;28;1801;-38
2020/12/08 05:11:37;;;;;;;;;;;;;;;16.94;64.97;100999.41;5015416;28;1595;-38
2020/12/08 05:14:06;;;;;;;;;;;;;;;16.93;64.03;101000.41;5015795;28;1681;-37
2020/12/08 05:16:31;;;;;;;;;;;;;;;16.92;64.56;101009.38;5015048;28;1727;-38
2020/12/08 05:19:09;;;;;;;;;;;;;;;16.92;64.88;101004.03;5015218;28;1611;-38
2020/12/08 05:21:45;;;;;;;;;;;;;;;16.92;65.00;101001.34;5015544;28;1961;-37
2020/12/08 05:24:20;;;;;;;;;;;;;;;16.90;63.97;100996.13;5015538;28;1793;-37
2020/12/08 05:26:51;;;;;;;;;;;;;;;16.89;64.51;101001.56;4999580;28;1815;-38
2020/12/08 05:29:19;;;;;;;;;;;;;;;16.92;63.96;101013.88;5015462;28;1785;-37
2020/12/08 05:31:45;;;;;;;;;;;;;;;16.89;64.99;100998.91;5015144;28;1748;-37
2020/12/08 05:34:11;;;;;;;;;;;;;;;16.93;64.13;101013.75;5015254;28;1782;-38
2020/12/08 05:36:44;;;;;;;;;;;;;;;16.90;65.04;101004.13;5015154;28;1864;-38
2020/12/08 05:39:11;;;;;;;;;;;;;;;16.92;65.36;101017.38;5014550;28;1647;-38
2020/12/08 05:41:42;;;;;;;;;;;;;;;16.90;64.62;101027.34;5014982;28;1910;-38
2020/12/08 05:44:09;;;;;;;;;;;;;;;16.88;65.61;101021.25;5015039;28;1701;-38
2020/12/08 05:46:42;;;;;;;;;;;;;;;16.92;64.78;101006.69;5013444;28;1730;-38
2020/12/08 05:49:12;;;;;;;;;;;;;;;16.93;65.64;101019.09;5014555;28;1847;-38
2020/12/08 05:51:45;;;;;;;;;;;;;;;16.89;66.06;101033.63;5014860;28;1735;-38
2020/12/08 05:54:18;;;;;;;;;;;;;;;16.88;66.04;101027.44;5014780;28;1798;-38
2020/12/08 05:56:44;;;;;;;;;;;;;;;16.87;66.54;101036.44;5014577;28;1768;-38
2020/12/08 05:59:09;;;;;;;;;;;;;;;16.88;66.44;101037.28;5015076;28;1563;-38
2020/12/08 06:01:45;;;;;;;;;;;;;;;16.90;65.13;101057.56;5014508;28;1951;-38
2020/12/08 06:04:11;;;;;;;;;;;;;;;16.88;66.29;101064.84;5014674;28;1419;-38
2020/12/08 06:06:44;;;;;;;;;;;;;;;16.87;65.64;101062.28;5014161;28;1849;-38
2020/12/08 06:09:09;;;;;;;;;;;;;;;16.87;65.75;101048.91;5045449;28;1617;-38
2020/12/08 06:11:34;;;;;;;;;;;;;;;16.86;65.04;101045.41;5014483;28;1786;-37
2020/12/08 06:14:00;;;;;;;;;;;;;;;16.83;65.25;101045.66;5014240;28;1654;-38
2020/12/08 06:16:25;;;;;;;;;;;;;;;16.84;66.19;101062.53;5014267;28;1746;-38
2020/12/08 06:18:51;;;;;;;;;;;;;;;16.85;65.54;101061.53;5014138;28;1800;-38
2020/12/08 06:21:17;;;;;;;;;;;;;;;16.82;65.61;101064.44;5014126;28;1897;-38
2020/12/08 06:23:46;;;;;;;;;;;;;;;16.80;65.07;101071.69;5013677;28;1690;-38
2020/12/08 06:26:11;;;;;;;;;;;;;;;16.76;65.05;101073.72;5014336;28;1857;-37
2020/12/08 06:28:37;;;;;;;;;;;;;;;16.76;65.99;101070.22;5013435;28;1681;-38
2020/12/08 06:31:06;;;;;;;;;;;;;;;16.80;65.42;101069.88;5007918;28;1747;-38
2020/12/08 06:33:31;;;;;;;;;;;;;;;16.79;66.23;101081.53;5004128;28;1772;-37
2020/12/08 06:35:58;;;;;;;;;;;;;;;16.79;65.54;101072.63;5014340;28;1831;-38
2020/12/08 06:38:23;;;;;;;;;;;;;;;16.75;65.43;101068.50;5013665;28;1721;-38
2020/12/08 06:40:52;;;;;;;;;;;;;;;16.77;66.19;101066.56;5013645;28;1975;-37
2020/12/08 06:43:18;;;;;;;;;;;;;;;16.80;65.49;101069.03;5014022;28;1750;-38
2020/12/08 06:45:43;;;;;;;;;;;;;;;16.77;65.08;101079.91;5013423;28;1642;-38
2020/12/08 06:48:14;;;;;;;;;;;;;;;16.79;65.06;101081.53;5013402;28;1508;-37
2020/12/08 06:50:40;;;;;;;;;;;;;;;16.94;65.92;101084.06;5014052;28;1798;-38
2020/12/08 06:53:05;;;;;;;;;;;;;;;16.90;65.36;101070.06;5013536;28;1686;-38
2020/12/08 06:55:41;;;;;;;;;;;;;;;16.90;65.63;101070.06;5013738;28;1542;-38
2020/12/08 06:58:06;;;;;;;;;;;;;;;16.91;65.86;101082.47;5012752;28;1795;-38
2020/12/08 07:00:31;;;;;;;;;;;;;;;16.91;65.50;101077.13;5012831;28;1989;-38
2020/12/08 07:02:57;;;;;;;;;;;;;;;16.86;66.02;101071.25;5013376;28;1794;-38
2020/12/08 07:05:28;;;;;;;;;;;;;;;16.85;67.41;101074.88;5013069;28;1870;-38
2020/12/08 07:07:54;;;;;;;;;;;;;;;16.86;67.37;101065.94;5013408;28;1567;-38
2020/12/08 07:10:20;;;;;;;;;;;;;;;16.90;66.62;101089.63;5013077;28;1076;-38
2020/12/08 07:12:49;;;;;;;;;;;;;;;16.88;66.38;101082.69;5012460;28;1561;-38
2020/12/08 07:15:15;;;;;;;;;;;;;;;16.82;66.17;101081.31;5010390;28;1565;-38
2020/12/08 07:17:41;;;;;;;;;;;;;;;16.80;66.22;101082.38;5013798;28;1770;-38
2020/12/08 07:20:06;;;;;;;;;;;;;;;16.75;65.65;101080.06;5013907;28;1906;-38
2020/12/08 07:22:41;;;;;;;;;;;;;;;16.76;65.98;101075.56;5012133;28;1837;-38
2020/12/08 07:25:07;;;;;;;;;;;;;;;16.80;66.51;101077.03;4962992;28;10644;-38
2020/12/08 07:27:33;;;;;;;;;;;;;;;16.76;66.91;101072.88;4964669;28;1779;-38
2020/12/08 07:29:58;;;;;;;;;;;;;;;16.76;67.09;101086.25;4986414;28;1652;-38
2020/12/08 07:32:27;;;;;;;;;;;;;;;16.85;65.38;101090.91;4996975;28;1767;-38
2020/12/08 07:34:52;;;;;;;;;;;;;;;17.07;65.35;101076.84;5011502;28;1537;-38
2020/12/08 07:37:17;;;;;;;;;;;;;;;17.35;65.07;101086.28;4985443;28;1702;-38
2020/12/08 07:39:42;;;;;;;;;;;;;;;17.52;64.50;101084.97;4977664;28;1227;-38
2020/12/08 07:42:08;;;;;;;;;;;;;;;17.74;63.94;101077.97;4993304;28;1919;-38
2020/12/08 07:44:33;;;;;;;;;;;;;;;17.92;64.22;101081.06;5006030;28;1694;-38
2020/12/08 07:46:59;;;;;;;;;;;;;;;18.07;63.31;101075.34;5003670;28;1660;-38
2020/12/08 07:49:24;;;;;;;;;;;;;;;18.25;63.34;101083.75;4997264;28;1345;-38
2020/12/08 07:51:50;;;;;;;;;;;;;;;18.42;62.86;101087.75;4997393;28;1393;-38
2020/12/08 07:54:15;;;;;;;;;;;;;;;18.57;62.50;101085.63;4998091;28;1297;-38
2020/12/08 07:56:41;;;;;;;;;;;;;;;18.73;61.73;101071.00;5001361;28;1634;-38
2020/12/08 07:59:06;;;;;;;;;;;;;;;18.91;61.14;101080.22;4997358;28;1379;-38
2020/12/08 08:01:41;;;;;;;;;;;;;;;19.03;61.10;101081.88;4986467;28;1910;-38
2020/12/08 08:04:11;;;;;;;;;;;;;;;19.13;60.80;101073.06;4997411;28;866;-38
2020/12/08 08:06:36;;;;;;;;;;;;;;;19.31;60.43;101089.44;4997503;28;786;-38
2020/12/08 08:09:06;;;;;;;;;;;;;;;19.37;60.29;101080.88;4989246;28;1107;-38
2020/12/08 08:11:32;;;;;;;;;;;;;;;19.79;58.89;101092.47;4987488;28;1263;-38
2020/12/08 08:13:58;;;;;;;;;;;;;;;19.78;59.14;101101.50;4997400;28;829;-38
2020/12/08 08:16:23;;;;;;;;;;;;;;;19.64;60.93;101089.25;4997153;28;897;-38
2020/12/08 08:18:48;;;;;;;;;;;;;;;19.71;60.82;101105.69;4997323;28;863;-38
2020/12/08 08:21:14;;;;;;;;;;;;;;;19.62;61.11;101096.56;4992081;28;1898;-38
2020/12/08 08:23:39;;;;;;;;;;;;;;;19.60;61.04;101100.38;4986938;28;1723;-38
2020/12/08 08:26:06;;;;;;;;;;;;;;;19.58;61.06;101099.66;4982723;28;1687;-38
2020/12/08 08:28:31;;;;;;;;;;;;;;;19.54;61.58;101103.59;4983944;28;1595;-38
2020/12/08 08:30:57;;;;;;;;;;;;;;;19.43;61.72;101108.00;4988459;28;1668;-38
2020/12/08 08:33:22;;;;;;;;;;;;;;;19.61;60.79;101110.13;4990887;28;1812;-38
2020/12/08 08:35:47;;;;;;;;;;;;;;;19.44;63.04;101115.09;4994377;28;1400;-38
2020/12/08 08:38:12;;;;;;;;;;;;;;;19.28;61.54;101103.97;4982986;28;2937;-39
2020/12/08 08:40:37;;;;;;;;;;;;;;;19.23;61.89;101112.38;4991429;28;1914;-38
2020/12/08 08:43:03;;;;;;;;;;;;;;;19.16;63.44;101118.38;4987289;28;1663;-38
2020/12/08 08:45:28;;;;;;;;;;;;;;;19.18;62.50;101119.97;4993068;28;1582;-38
2020/12/08 08:47:53;;;;;;;;;;;;;;;19.21;62.23;101125.06;4984088;28;1605;-38
2020/12/08 08:50:19;;;;;;;;;;;;;;;19.18;62.41;101119.09;4898551;28;11024;-38
2020/12/08 08:52:44;;;;;;;;;;;;;;;19.07;63.44;101117.31;4996961;28;10964;-38
2020/12/08 08:55:10;;;;;;;;;;;;;;;18.94;63.52;101104.09;5012051;28;1663;-38
2020/12/08 08:57:38;;;;;;;;;;;;;;;18.94;63.05;101106.78;5012056;28;1763;-38
2020/12/08 09:00:05;;;;;;;;;;;;;;;18.86;63.62;101115.44;5004913;28;1664;-38
2020/12/08 09:02:30;;;;;;;;;;;;;;;18.79;64.00;101102.66;5010839;28;1973;-39
2020/12/08 09:04:56;;;;;;;;;;;;;;;18.72;63.72;101105.00;5013288;28;1327;-38
2020/12/08 09:07:21;;;;;;;;;;;;;;;18.67;64.17;101116.06;5012035;28;1661;-38
2020/12/08 09:09:46;;;;;;;;;;;;;;;18.59;64.19;101101.59;5011484;28;1540;-38
2020/12/08 09:12:11;;;;;;;;;;;;;;;18.59;64.08;101101.59;5007988;28;2025;-38
2020/12/08 09:14:37;;;;;;;;;;;;;;;18.55;64.45;101106.34;5006796;28;1861;-39
2020/12/08 09:17:02;;;;;;;;;;;;;;;18.58;63.55;101105.22;5007571;28;1940;-38
2020/12/08 09:19:27;;;;;;;;;;;;;;;18.68;64.10;101106.19;5005665;28;1822;-38
2020/12/08 09:21:54;;;;;;;;;;;;;;;18.64;63.79;101108.28;5008112;28;2210;-38
2020/12/08 09:24:20;;;;;;;;;;;;;;;18.73;65.24;101101.31;5011056;28;1554;-38
2020/12/08 09:26:45;;;;;;;;;;;;;;;18.71;65.97;101102.44;5009634;28;1790;-37
2020/12/08 09:29:10;;;;;;;;;;;;;;;18.68;66.34;101100.81;5011152;28;1760;-38
2020/12/08 09:31:36;;;;;;;;;;;;;;;18.62;66.53;101093.28;5036742;28;1731;-38
2020/12/08 09:34:01;;;;;;;;;;;;;;;18.60;66.27;101114.88;5010848;28;1665;-39
2020/12/08 09:36:26;;;;;;;;;;;;;;;18.59;65.34;101117.66;5012553;28;2004;-38
2020/12/08 09:38:52;;;;;;;;;;;;;;;18.56;64.80;101107.19;5011921;28;1816;-38
2020/12/08 09:41:17;;;;;;;;;;;;;;;18.63;65.23;101106.56;5006083;28;2001;-38
2020/12/08 09:43:42;;;;;;;;;;;;;;;18.65;64.07;101111.81;5011977;28;1669;-38
2020/12/08 09:46:07;;;;;;;;;;;;;;;18.61;64.04;101116.56;5010691;28;1631;-38
2020/12/08 09:48:33;;;;;;;;;;;;;;;18.59;62.88;101121.19;5009999;28;1524;-38
2020/12/08 09:50:58;;;;;;;;;;;;;;;18.57;63.35;101120.47;5010761;28;1480;-38
2020/12/08 09:53:23;;;;;;;;;;;;;;;18.63;64.01;101122.63;5008509;28;1603;-38
2020/12/08 09:55:49;;;;;;;;;;;;;;;18.68;63.82;101135.66;5010279;28;2531;-38
2020/12/08 09:58:14;;;;;;;;;;;;;;;18.61;64.11;101126.44;5010205;28;1733;-38
2020/12/08 10:00:40;;;;;;;;;;;;;;;18.62;64.54;101129.00;5009911;28;1955;-38
2020/12/08 10:03:05;;;;;;;;;;;;;;;18.68;64.83;101131.16;5010225;28;1801;-38
2020/12/08 10:05:31;;;;;;;;;;;;;;;18.88;65.40;101121.53;5010348;28;1274;-38
2020/12/08 10:07:56;;;;;;;;;;;;;;;19.01;67.30;101128.56;5005530;28;1778;-39
2020/12/08 10:10:21;;;;;;;;;;;;;;;19.02;67.27;101128.44;5010427;28;1588;-39
2020/12/08 10:12:47;;;;;;;;;;;;;;;19.10;66.60;101132.28;5009550;28;1769;-38
2020/12/08 10:15:12;;;;;;;;;;;;;;;19.23;65.90;101141.88;5010235;28;1803;-38
2020/12/08 10:17:37;;;;;;;;;;;;;;;19.31;65.61;101130.50;5010843;28;1815;-38
2020/12/08 10:20:03;;;;;;;;;;;;;;;19.50;65.01;101132.50;5009314;28;1404;-38
2020/12/08 10:22:28;;;;;;;;;;;;;;;19.63;64.65;101135.81;5006421;28;1957;-39
2020/12/08 10:24:53;;;;;;;;;;;;;;;19.52;65.22;101132.34;5007830;28;1693;-38
2020/12/08 10:27:18;;;;;;;;;;;;;;;19.39;65.48;101133.38;5009346;28;1756;-38
2020/12/08 10:29:44;;;;;;;;;;;;;;;19.34;65.44;101135.63;5011042;28;1291;-38
2020/12/08 10:32:09;;;;;;;;;;;;;;;19.33;65.51;101143.78;5007413;28;1825;-38
2020/12/08 10:34:34;;;;;;;;;;;;;;;19.27;65.08;101134.44;5008170;28;1762;-38
2020/12/08 10:36:59;;;;;;;;;;;;;;;19.41;64.97;101139.47;5006223;28;1611;-38
2020/12/08 10:39:26;;;;;;;;;;;;;;;19.36;64.78;101144.38;5009896;28;1509;-39
2020/12/08 10:41:53;;;;;;;;;;;;;;;19.38;64.57;101131.69;5010577;28;2158;-38
2020/12/08 10:44:19;;;;;;;;;;;;;;;19.37;64.73;101148.75;5003420;28;1726;-37
2020/12/08 10:46:44;;;;;;;;;;;;;;;19.37;64.76;101139.88;4998375;28;11179;-38
2020/12/08 10:49:09;;;;;;;;;;;;;;;19.23;64.76;101136.50;4986999;28;1583;-38
2020/12/08 10:51:34;;;;;;;;;;;;;;;19.19;65.44;101142.25;4987760;28;1311;-39
2020/12/08 10:54:00;;;;;;;;;;;;;;;19.19;65.44;101127.03;4984294;28;1978;-38
2020/12/08 10:56:25;;;;;;;;;;;;;;;19.08;65.34;101141.31;4986779;28;1942;-38
2020/12/08 10:58:51;;;;;;;;;;;;;;;18.94;66.04;101141.63;4984131;28;1654;-38
2020/12/08 11:01:17;;;;;;;;;;;;;;;18.90;65.85;101147.34;4983752;28;1930;-38
2020/12/08 11:03:42;;;;;;;;;;;;;;;18.88;66.11;101144.81;4983799;28;1564;-38
2020/12/08 11:06:08;;;;;;;;;;;;;;;18.88;66.32;101136.75;5003193;28;1470;-38
2020/12/08 11:08:33;;;;;;;;;;;;;;;18.84;66.26;101143.31;4984601;28;1716;-38
2020/12/08 11:10:58;;;;;;;;;;;;;;;18.77;66.55;101142.94;4983597;28;1789;-38
2020/12/08 11:13:23;;;;;;;;;;;;;;;18.69;66.32;101151.59;4987494;28;1731;-38
2020/12/08 11:15:49;;;;;;;;;;;;;;;18.66;66.12;101151.88;4987210;28;1743;-38
2020/12/08 11:18:14;;;;;;;;;;;;;;;18.71;66.56;101147.97;4985546;28;1670;-39
2020/12/08 11:20:39;;;;;;;;;;;;;;;18.80;66.50;101153.47;4979198;28;1894;-38
2020/12/08 11:23:05;;;;;;;;;;;;;;;18.86;66.37;101157.44;4986232;28;1608;-38
2020/12/08 11:25:30;;;;;;;;;;;;;;;19.02;65.47;101152.56;4985873;28;10922;-39
2020/12/08 11:27:55;;;;;;;;;;;;;;;18.91;62.68;101159.78;4988536;28;1808;-38
2020/12/08 11:30:20;;;;;;;;;;;;;;;18.84;63.73;101160.28;4988787;28;1625;-38
2020/12/08 11:32:45;;;;;;;;;;;;;;;18.85;64.10;101163.78;4985929;28;1677;-38
2020/12/08 11:35:11;;;;;;;;;;;;;;;18.92;63.36;101162.34;4986442;28;1625;-38
2020/12/08 11:37:36;;;;;;;;;;;;;;;18.92;64.19;101156.97;4984127;28;1811;-38
2020/12/08 11:40:01;;;;;;;;;;;;;;;18.81;65.74;101157.00;4984503;28;1591;-39
2020/12/08 11:42:27;;;;;;;;;;;;;;;18.97;64.63;101153.91;4984548;28;1978;-38
2020/12/08 11:44:52;;;;;;;;;;;;;;;18.98;64.96;101151.09;5013749;28;1619;-38
2020/12/08 11:47:18;;;;;;;;;;;;;;;19.02;64.78;101163.28;4989863;28;1827;-38
2020/12/08 11:49:43;;;;;;;;;;;;;;;18.91;65.41;101163.28;4988423;28;1622;-38
2020/12/08 11:52:12;;;;;;;;;;;;;;;18.87;65.38;101156.47;4985464;28;1646;-38
2020/12/08 11:54:38;;;;;;;;;;;;;;;18.86;65.30;101162.81;4987547;28;1721;-38
2020/12/08 11:57:04;;;;;;;;;;;;;;;18.83;65.92;101160.38;4987605;28;1522;-38
2020/12/08 11:59:29;;;;;;;;;;;;;;;18.77;66.00;101160.88;4987206;28;1942;-39
2020/12/08 12:01:54;;;;;;;;;;;;;;;18.82;65.85;101166.72;4985996;28;1890;-38
2020/12/08 12:04:19;;;;;;;;;;;;;;;18.77;66.12;101159.03;4987143;28;1948;-39
2020/12/08 12:06:44;;;;;;;;;;;;;;;18.70;66.20;101157.81;4974585;28;1334;-38
2020/12/08 12:09:10;;;;;;;;;;;;;;;18.71;65.79;101156.00;4986517;28;1757;-38
2020/12/08 12:11:35;;;;;;;;;;;;;;;18.73;63.79;101154.06;4988966;28;1695;-38
2020/12/08 12:14:02;;;;;;;;;;;;;;;18.76;64.41;101156.47;5013669;28;2276;-38
2020/12/08 12:16:28;;;;;;;;;;;;;;;18.73;64.48;101154.91;4983263;28;3237;-38
2020/12/08 12:18:53;;;;;;;;;;;;;;;18.74;64.59;101159.28;4989817;28;2138;-38
2020/12/08 12:21:18;;;;;;;;;;;;;;;18.72;65.14;101144.28;4991462;28;1966;-37
2020/12/08 12:23:43;;;;;;;;;;;;;;;18.67;64.67;101153.56;4987043;28;1702;-38
2020/12/08 12:26:09;;;;;;;;;;;;;;;18.67;65.22;101152.72;4981539;28;1762;-38
2020/12/08 12:28:34;;;;;;;;;;;;;;;18.67;65.32;101153.56;4988567;28;1554;-38
2020/12/08 12:31:00;;;;;;;;;;;;;;;18.72;65.49;101163.91;4987974;28;1736;-39
2020/12/08 12:33:25;;;;;;;;;;;;;;;18.73;65.68;101162.09;4989807;28;1663;-38
2020/12/08 12:35:50;;;;;;;;;;;;;;;18.68;65.35;101163.31;4990699;28;1556;-38
2020/12/08 12:38:16;;;;;;;;;;;;;;;18.65;65.37;101165.38;4990673;28;1710;-38
2020/12/08 12:40:41;;;;;;;;;;;;;;;18.57;65.58;101149.91;4989431;28;2053;-38